sensor_id;sensor_type;location;lat;lon;timestamp;temperature;humidity
71837;DHT22;59686;51.716;7.016;2022-11-20T00:01:15;8.40;61.50
71837;DHT22;59686;51.716;7.016;2022-11-20T00:03:41;8.40;61.40
71837;DHT22;59686;51.716;7.016;2022-11-20T00:06:12;8.40;61.50
71837;DHT22;59686;51.716;7.016;2022-11-20T00:08:39;8.40;61.50
71837;DHT22;59686;51.716;7.016;2022-11-20T00:11:05;8.40;61.40
71837;DHT22;59686;51.716;7.016;2022-11-20T00:13:32;8.40;61.40
71837;DHT22;59686;51.716;7.016;2022-11-20T00:15:59;8.40;61.40
71837;DHT22;59686;51.716;7.016;2022-11-20T00:18:26;8.40;61.30
71837;DHT22;59686;51.716;7.016;2022-11-20T00:20:51;8.40;61.30
71837;DHT22;59686;51.716;7.016;2022-11-20T00:23:17;8.40;61.30
71837;DHT22;59686;51.716;7.016;2022-11-20T00:25:43;8.40;61.30
71837;DHT22;59686;51.716;7.016;2022-11-20T00:28:08;8.30;61.20
71837;DHT22;59686;51.716;7.016;2022-11-20T00:30:34;8.30;61.30
71837;DHT22;59686;51.716;7.016;2022-11-20T00:33:00;8.30;61.30
71837;DHT22;59686;51.716;7.016;2022-11-20T00:35:25;8.40;61.30
71837;DHT22;59686;51.716;7.016;2022-11-20T00:37:51;8.30;61.20
71837;DHT22;59686;51.716;7.016;2022-11-20T00:40:17;8.30;61.20
71837;DHT22;59686;51.716;7.016;2022-11-20T00:42:45;8.30;61.20
71837;DHT22;59686;51.716;7.016;2022-11-20T00:45:11;8.30;61.20
71837;DHT22;59686;51.716;7.016;2022-11-20T00:47:37;8.30;61.20
71837;DHT22;59686;51.716;7.016;2022-11-20T00:50:03;8.20;61.10
71837;DHT22;59686;51.716;7.016;2022-11-20T00:52:28;8.20;61.10
71837;DHT22;59686;51.716;7.016;2022-11-20T00:54:54;8.30;61.10
71837;DHT22;59686;51.716;7.016;2022-11-20T00:57:20;8.20;61.90
71837;DHT22;59686;51.716;7.016;2022-11-20T00:59:45;8.20;61.00
71837;DHT22;59686;51.716;7.016;2022-11-20T01:02:11;8.20;61.00
71837;DHT22;59686;51.716;7.016;2022-11-20T01:04:37;8.20;60.90
71837;DHT22;59686;51.716;7.016;2022-11-20T01:07:02;8.20;61.00
71837;DHT22;59686;51.716;7.016;2022-11-20T01:09:28;8.20;61.00
71837;DHT22;59686;51.716;7.016;2022-11-20T01:11:54;8.20;61.00
71837;DHT22;59686;51.716;7.016;2022-11-20T01:14:20;8.20;61.00
71837;DHT22;59686;51.716;7.016;2022-11-20T01:16:48;8.20;61.00
71837;DHT22;59686;51.716;7.016;2022-11-20T01:19:18;8.20;61.00
71837;DHT22;59686;51.716;7.016;2022-11-20T01:21:47;8.20;61.00
71837;DHT22;59686;51.716;7.016;2022-11-20T01:24:15;8.10;60.90
71837;DHT22;59686;51.716;7.016;2022-11-20T01:26:42;8.20;61.00
71837;DHT22;59686;51.716;7.016;2022-11-20T01:29:14;8.10;60.90
71837;DHT22;59686;51.716;7.016;2022-11-20T01:31:41;8.10;60.90
71837;DHT22;59686;51.716;7.016;2022-11-20T01:34:10;8.10;60.90
71837;DHT22;59686;51.716;7.016;2022-11-20T01:36:37;8.10;60.80
71837;DHT22;59686;51.716;7.016;2022-11-20T01:39:10;8.10;60.70
71837;DHT22;59686;51.716;7.016;2022-11-20T01:41:35;8.10;60.80
71837;DHT22;59686;51.716;7.016;2022-11-20T01:44:39;8.00;60.80
71837;DHT22;59686;51.716;7.016;2022-11-20T01:47:09;8.00;60.80
71837;DHT22;59686;51.716;7.016;2022-11-20T01:49:46;8.00;60.80
71837;DHT22;59686;51.716;7.016;2022-11-20T01:52:34;8.00;60.80
71837;DHT22;59686;51.716;7.016;2022-11-20T01:55:05;8.00;60.70
71837;DHT22;59686;51.716;7.016;2022-11-20T01:57:33;8.00;60.80
71837;DHT22;59686;51.716;7.016;2022-11-20T02:00:05;8.00;60.80
71837;DHT22;59686;51.716;7.016;2022-11-20T02:02:32;8.00;60.80
71837;DHT22;59686;51.716;7.016;2022-11-20T02:05:02;8.00;60.80
71837;DHT22;59686;51.716;7.016;2022-11-20T02:07:30;8.00;60.80
71837;DHT22;59686;51.716;7.016;2022-11-20T02:09:55;7.90;60.80
71837;DHT22;59686;51.716;7.016;2022-11-20T02:12:21;8.10;60.80
71837;DHT22;59686;51.716;7.016;2022-11-20T02:15:05;7.90;60.70
71837;DHT22;59686;51.716;7.016;2022-11-20T02:17:31;7.90;60.70
71837;DHT22;59686;51.716;7.016;2022-11-20T02:19:57;7.90;60.70
71837;DHT22;59686;51.716;7.016;2022-11-20T02:22:28;7.90;60.60
71837;DHT22;59686;51.716;7.016;2022-11-20T02:24:58;7.90;60.70
71837;DHT22;59686;51.716;7.016;2022-11-20T02:27:24;7.90;60.60
71837;DHT22;59686;51.716;7.016;2022-11-20T02:32:22;7.90;60.70
71837;DHT22;59686;51.716;7.016;2022-11-20T02:34:48;7.90;60.70
71837;DHT22;59686;51.716;7.016;2022-11-20T02:37:15;7.90;60.70
71837;DHT22;59686;51.716;7.016;2022-11-20T02:39:41;7.90;60.70
71837;DHT22;59686;51.716;7.016;2022-11-20T02:42:07;8.00;60.60
71837;DHT22;59686;51.716;7.016;2022-11-20T02:44:33;7.90;60.60
71837;DHT22;59686;51.716;7.016;2022-11-20T02:46:59;7.80;60.50
71837;DHT22;59686;51.716;7.016;2022-11-20T02:49:25;7.80;60.50
71837;DHT22;59686;51.716;7.016;2022-11-20T02:51:51;7.80;60.60
71837;DHT22;59686;51.716;7.016;2022-11-20T02:54:16;7.80;60.60
71837;DHT22;59686;51.716;7.016;2022-11-20T02:56:42;7.80;60.60
71837;DHT22;59686;51.716;7.016;2022-11-20T02:59:09;7.80;60.50
71837;DHT22;59686;51.716;7.016;2022-11-20T03:01:35;7.80;60.40
71837;DHT22;59686;51.716;7.016;2022-11-20T03:04:01;7.80;60.40
71837;DHT22;59686;51.716;7.016;2022-11-20T03:06:27;7.80;60.50
71837;DHT22;59686;51.716;7.016;2022-11-20T03:08:52;7.80;60.50
71837;DHT22;59686;51.716;7.016;2022-11-20T03:11:18;7.70;60.40
71837;DHT22;59686;51.716;7.016;2022-11-20T03:13:44;7.70;60.50
71837;DHT22;59686;51.716;7.016;2022-11-20T03:16:15;7.70;60.40
71837;DHT22;59686;51.716;7.016;2022-11-20T03:18:42;7.70;60.40
71837;DHT22;59686;51.716;7.016;2022-11-20T03:21:09;7.70;60.40
71837;DHT22;59686;51.716;7.016;2022-11-20T03:23:36;7.70;60.50
71837;DHT22;59686;51.716;7.016;2022-11-20T03:26:17;7.70;60.40
71837;DHT22;59686;51.716;7.016;2022-11-20T03:28:58;7.70;60.40
71837;DHT22;59686;51.716;7.016;2022-11-20T03:31:26;7.70;60.30
71837;DHT22;59686;51.716;7.016;2022-11-20T03:34:05;7.70;60.40
71837;DHT22;59686;51.716;7.016;2022-11-20T03:36:30;7.70;60.20
71837;DHT22;59686;51.716;7.016;2022-11-20T03:38:56;7.60;60.30
71837;DHT22;59686;51.716;7.016;2022-11-20T03:41:36;7.70;60.20
71837;DHT22;59686;51.716;7.016;2022-11-20T03:44:04;7.60;60.20
71837;DHT22;59686;51.716;7.016;2022-11-20T03:46:30;7.60;60.30
71837;DHT22;59686;51.716;7.016;2022-11-20T03:48:56;7.60;60.30
71837;DHT22;59686;51.716;7.016;2022-11-20T03:51:30;7.60;60.30
71837;DHT22;59686;51.716;7.016;2022-11-20T03:53:58;7.60;60.30
71837;DHT22;59686;51.716;7.016;2022-11-20T03:56:27;7.60;60.30
71837;DHT22;59686;51.716;7.016;2022-11-20T03:58:53;7.60;60.20
71837;DHT22;59686;51.716;7.016;2022-11-20T04:01:22;7.60;60.20
71837;DHT22;59686;51.716;7.016;2022-11-20T04:03:48;7.60;60.20
71837;DHT22;59686;51.716;7.016;2022-11-20T04:06:48;7.50;60.20
71837;DHT22;59686;51.716;7.016;2022-11-20T04:09:07;7.50;60.20
71837;DHT22;59686;51.716;7.016;2022-11-20T04:11:35;7.50;60.10
71837;DHT22;59686;51.716;7.016;2022-11-20T04:14:03;7.50;60.10
71837;DHT22;59686;51.716;7.016;2022-11-20T04:16:31;7.50;60.00
71837;DHT22;59686;51.716;7.016;2022-11-20T04:18:59;7.50;60.00
71837;DHT22;59686;51.716;7.016;2022-11-20T04:21:25;7.50;60.10
71837;DHT22;59686;51.716;7.016;2022-11-20T04:23:52;7.50;60.10
71837;DHT22;59686;51.716;7.016;2022-11-20T04:26:22;7.50;60.10
71837;DHT22;59686;51.716;7.016;2022-11-20T04:28:51;7.50;59.90
71837;DHT22;59686;51.716;7.016;2022-11-20T04:31:23;7.50;60.00
71837;DHT22;59686;51.716;7.016;2022-11-20T04:33:49;7.50;60.00
71837;DHT22;59686;51.716;7.016;2022-11-20T04:36:17;7.40;60.00
71837;DHT22;59686;51.716;7.016;2022-11-20T04:38:44;7.50;60.00
71837;DHT22;59686;51.716;7.016;2022-11-20T04:41:18;7.40;60.00
71837;DHT22;59686;51.716;7.016;2022-11-20T04:43:49;7.40;60.00
71837;DHT22;59686;51.716;7.016;2022-11-20T04:46:19;7.40;60.10
71837;DHT22;59686;51.716;7.016;2022-11-20T04:48:46;7.40;59.90
71837;DHT22;59686;51.716;7.016;2022-11-20T04:51:12;7.40;60.00
71837;DHT22;59686;51.716;7.016;2022-11-20T04:53:38;7.40;60.00
71837;DHT22;59686;51.716;7.016;2022-11-20T04:56:08;7.40;60.00
71837;DHT22;59686;51.716;7.016;2022-11-20T04:58:35;7.40;60.00
71837;DHT22;59686;51.716;7.016;2022-11-20T05:01:14;7.40;60.00
71837;DHT22;59686;51.716;7.016;2022-11-20T05:03:41;7.40;59.90
71837;DHT22;59686;51.716;7.016;2022-11-20T05:06:08;7.30;59.80
71837;DHT22;59686;51.716;7.016;2022-11-20T05:08:34;7.30;59.80
71837;DHT22;59686;51.716;7.016;2022-11-20T05:11:08;7.30;59.90
71837;DHT22;59686;51.716;7.016;2022-11-20T05:13:34;7.30;59.90
71837;DHT22;59686;51.716;7.016;2022-11-20T05:16:05;7.20;60.50
71837;DHT22;59686;51.716;7.016;2022-11-20T05:18:32;7.30;59.90
71837;DHT22;59686;51.716;7.016;2022-11-20T05:20:58;7.30;59.80
71837;DHT22;59686;51.716;7.016;2022-11-20T05:23:24;7.30;59.80
71837;DHT22;59686;51.716;7.016;2022-11-20T05:25:54;7.30;59.80
71837;DHT22;59686;51.716;7.016;2022-11-20T05:28:21;7.30;59.80
71837;DHT22;59686;51.716;7.016;2022-11-20T05:30:47;7.30;59.80
71837;DHT22;59686;51.716;7.016;2022-11-20T05:33:12;7.30;59.80
71837;DHT22;59686;51.716;7.016;2022-11-20T05:35:38;7.30;59.80
71837;DHT22;59686;51.716;7.016;2022-11-20T05:38:04;7.20;59.70
71837;DHT22;59686;51.716;7.016;2022-11-20T05:40:29;7.30;59.70
71837;DHT22;59686;51.716;7.016;2022-11-20T05:42:55;7.20;59.70
71837;DHT22;59686;51.716;7.016;2022-11-20T05:45:21;7.20;59.70
71837;DHT22;59686;51.716;7.016;2022-11-20T05:47:46;7.20;59.80
71837;DHT22;59686;51.716;7.016;2022-11-20T05:50:13;7.20;59.80
71837;DHT22;59686;51.716;7.016;2022-11-20T05:52:38;7.20;59.80
71837;DHT22;59686;51.716;7.016;2022-11-20T05:55:04;7.20;59.80
71837;DHT22;59686;51.716;7.016;2022-11-20T05:57:31;7.20;59.80
71837;DHT22;59686;51.716;7.016;2022-11-20T05:59:56;7.20;59.80
71837;DHT22;59686;51.716;7.016;2022-11-20T06:02:22;7.20;59.70
71837;DHT22;59686;51.716;7.016;2022-11-20T06:04:47;7.20;59.80
71837;DHT22;59686;51.716;7.016;2022-11-20T06:07:14;7.20;59.70
71837;DHT22;59686;51.716;7.016;2022-11-20T06:09:39;7.10;59.80
71837;DHT22;59686;51.716;7.016;2022-11-20T06:12:05;7.10;59.80
71837;DHT22;59686;51.716;7.016;2022-11-20T06:14:31;7.10;59.70
71837;DHT22;59686;51.716;7.016;2022-11-20T06:16:56;7.10;59.60
71837;DHT22;59686;51.716;7.016;2022-11-20T06:19:22;7.10;59.80
71837;DHT22;59686;51.716;7.016;2022-11-20T06:21:48;7.10;59.80
71837;DHT22;59686;51.716;7.016;2022-11-20T06:24:15;7.10;59.80
71837;DHT22;59686;51.716;7.016;2022-11-20T06:26:41;7.10;60.40
71837;DHT22;59686;51.716;7.016;2022-11-20T06:29:07;7.10;59.80
71837;DHT22;59686;51.716;7.016;2022-11-20T06:31:32;7.10;59.80
71837;DHT22;59686;51.716;7.016;2022-11-20T06:34:28;7.10;59.80
71837;DHT22;59686;51.716;7.016;2022-11-20T06:36:54;7.10;59.80
71837;DHT22;59686;51.716;7.016;2022-11-20T06:39:19;7.00;59.60
71837;DHT22;59686;51.716;7.016;2022-11-20T06:41:45;7.00;59.70
71837;DHT22;59686;51.716;7.016;2022-11-20T06:44:10;7.00;59.80
71837;DHT22;59686;51.716;7.016;2022-11-20T06:46:36;7.00;59.80
71837;DHT22;59686;51.716;7.016;2022-11-20T06:49:02;7.00;59.80
71837;DHT22;59686;51.716;7.016;2022-11-20T06:51:28;7.00;59.80
71837;DHT22;59686;51.716;7.016;2022-11-20T06:53:53;7.00;59.70
71837;DHT22;59686;51.716;7.016;2022-11-20T06:56:19;7.00;59.80
71837;DHT22;59686;51.716;7.016;2022-11-20T06:58:45;7.00;59.70
71837;DHT22;59686;51.716;7.016;2022-11-20T07:01:12;7.00;59.80
71837;DHT22;59686;51.716;7.016;2022-11-20T07:03:39;7.00;59.80
71837;DHT22;59686;51.716;7.016;2022-11-20T07:06:05;7.00;59.70
71837;DHT22;59686;51.716;7.016;2022-11-20T07:08:32;7.00;59.70
71837;DHT22;59686;51.716;7.016;2022-11-20T07:10:58;7.00;59.70
71837;DHT22;59686;51.716;7.016;2022-11-20T07:13:25;7.00;59.60
71837;DHT22;59686;51.716;7.016;2022-11-20T07:15:51;6.90;59.70
71837;DHT22;59686;51.716;7.016;2022-11-20T07:18:16;6.90;60.30
71837;DHT22;59686;51.716;7.016;2022-11-20T07:20:42;6.90;59.60
71837;DHT22;59686;51.716;7.016;2022-11-20T07:23:08;7.00;59.60
71837;DHT22;59686;51.716;7.016;2022-11-20T07:25:33;6.90;59.60
71837;DHT22;59686;51.716;7.016;2022-11-20T07:28:00;6.80;59.60
71837;DHT22;59686;51.716;7.016;2022-11-20T07:30:29;6.90;59.60
71837;DHT22;59686;51.716;7.016;2022-11-20T07:32:56;6.90;59.70
71837;DHT22;59686;51.716;7.016;2022-11-20T07:35:23;6.90;59.60
71837;DHT22;59686;51.716;7.016;2022-11-20T07:37:48;6.90;59.60
71837;DHT22;59686;51.716;7.016;2022-11-20T07:40:15;6.90;59.60
71837;DHT22;59686;51.716;7.016;2022-11-20T07:42:52;6.80;59.60
71837;DHT22;59686;51.716;7.016;2022-11-20T07:45:19;6.80;60.30
71837;DHT22;59686;51.716;7.016;2022-11-20T07:47:45;6.90;59.70
71837;DHT22;59686;51.716;7.016;2022-11-20T07:50:11;6.80;60.30
71837;DHT22;59686;51.716;7.016;2022-11-20T07:52:37;6.80;59.60
71837;DHT22;59686;51.716;7.016;2022-11-20T07:55:06;6.80;59.70
71837;DHT22;59686;51.716;7.016;2022-11-20T07:57:31;6.80;59.60
71837;DHT22;59686;51.716;7.016;2022-11-20T07:59:57;6.80;59.70
71837;DHT22;59686;51.716;7.016;2022-11-20T08:02:23;6.90;59.80
71837;DHT22;59686;51.716;7.016;2022-11-20T08:04:48;6.80;59.70
71837;DHT22;59686;51.716;7.016;2022-11-20T08:07:14;6.80;59.80
71837;DHT22;59686;51.716;7.016;2022-11-20T08:09:40;6.80;59.80
71837;DHT22;59686;51.716;7.016;2022-11-20T08:12:05;6.80;59.80
71837;DHT22;59686;51.716;7.016;2022-11-20T08:14:50;6.80;59.80
71837;DHT22;59686;51.716;7.016;2022-11-20T08:17:15;6.80;59.80
71837;DHT22;59686;51.716;7.016;2022-11-20T08:19:41;6.80;59.90
71837;DHT22;59686;51.716;7.016;2022-11-20T08:22:07;6.80;59.90
71837;DHT22;59686;51.716;7.016;2022-11-20T08:24:32;6.80;59.90
71837;DHT22;59686;51.716;7.016;2022-11-20T08:26:59;6.80;60.00
71837;DHT22;59686;51.716;7.016;2022-11-20T08:29:39;6.80;60.00
71837;DHT22;59686;51.716;7.016;2022-11-20T08:32:04;6.80;60.10
71837;DHT22;59686;51.716;7.016;2022-11-20T08:34:30;6.80;60.10
71837;DHT22;59686;51.716;7.016;2022-11-20T08:36:56;6.70;60.00
71837;DHT22;59686;51.716;7.016;2022-11-20T08:39:21;6.80;60.20
71837;DHT22;59686;51.716;7.016;2022-11-20T08:41:47;6.80;60.20
71837;DHT22;59686;51.716;7.016;2022-11-20T08:44:13;6.80;60.30
71837;DHT22;59686;51.716;7.016;2022-11-20T08:46:40;6.80;60.40
71837;DHT22;59686;51.716;7.016;2022-11-20T08:49:09;6.80;60.40
71837;DHT22;59686;51.716;7.016;2022-11-20T08:51:35;6.80;60.50
71837;DHT22;59686;51.716;7.016;2022-11-20T08:54:03;6.80;60.60
71837;DHT22;59686;51.716;7.016;2022-11-20T08:56:28;6.80;60.60
71837;DHT22;59686;51.716;7.016;2022-11-20T08:58:54;6.90;60.80
71837;DHT22;59686;51.716;7.016;2022-11-20T09:01:21;6.80;60.80
71837;DHT22;59686;51.716;7.016;2022-11-20T09:03:47;6.80;60.90
71837;DHT22;59686;51.716;7.016;2022-11-20T09:06:13;6.80;61.00
71837;DHT22;59686;51.716;7.016;2022-11-20T09:08:39;6.80;61.00
71837;DHT22;59686;51.716;7.016;2022-11-20T09:11:06;6.80;61.20
71837;DHT22;59686;51.716;7.016;2022-11-20T09:13:33;6.80;61.30
71837;DHT22;59686;51.716;7.016;2022-11-20T09:16:04;6.80;61.30
71837;DHT22;59686;51.716;7.016;2022-11-20T09:18:31;6.80;61.40
71837;DHT22;59686;51.716;7.016;2022-11-20T09:21:03;6.80;61.50
71837;DHT22;59686;51.716;7.016;2022-11-20T09:23:39;6.80;61.50
71837;DHT22;59686;51.716;7.016;2022-11-20T09:26:09;6.80;61.60
71837;DHT22;59686;51.716;7.016;2022-11-20T09:28:36;6.80;61.70
71837;DHT22;59686;51.716;7.016;2022-11-20T09:31:08;6.90;61.90
71837;DHT22;59686;51.716;7.016;2022-11-20T09:33:35;6.80;61.80
71837;DHT22;59686;51.716;7.016;2022-11-20T09:36:01;6.80;62.00
71837;DHT22;59686;51.716;7.016;2022-11-20T09:38:26;6.80;62.00
71837;DHT22;59686;51.716;7.016;2022-11-20T09:41:04;6.80;62.10
71837;DHT22;59686;51.716;7.016;2022-11-20T09:54:18;6.80;62.40
71837;DHT22;59686;51.716;7.016;2022-11-20T09:56:53;6.80;62.60
71837;DHT22;59686;51.716;7.016;2022-11-20T09:59:45;6.80;62.50
71837;DHT22;59686;51.716;7.016;2022-11-20T10:04:51;6.80;62.80
71837;DHT22;59686;51.716;7.016;2022-11-20T10:10:03;6.80;62.90
71837;DHT22;59686;51.716;7.016;2022-11-20T10:15:27;6.90;63.00
71837;DHT22;59686;51.716;7.016;2022-11-20T10:25:52;6.90;63.40
71837;DHT22;59686;51.716;7.016;2022-11-20T10:28:27;6.90;63.40
71837;DHT22;59686;51.716;7.016;2022-11-20T10:31:03;6.90;63.60
71837;DHT22;59686;51.716;7.016;2022-11-20T10:33:34;6.90;63.70
71837;DHT22;59686;51.716;7.016;2022-11-20T10:41:02;6.90;63.90
71837;DHT22;59686;51.716;7.016;2022-11-20T10:43:49;7.00;63.90
71837;DHT22;59686;51.716;7.016;2022-11-20T10:46:21;6.90;63.90
71837;DHT22;59686;51.716;7.016;2022-11-20T10:48:50;6.90;64.10
71837;DHT22;59686;51.716;7.016;2022-11-20T10:51:33;6.90;64.30
71837;DHT22;59686;51.716;7.016;2022-11-20T10:56:51;6.90;64.30
71837;DHT22;59686;51.716;7.016;2022-11-20T10:59:41;6.90;64.40
71837;DHT22;59686;51.716;7.016;2022-11-20T11:02:19;6.90;64.40
71837;DHT22;59686;51.716;7.016;2022-11-20T11:04:53;6.90;64.60
71837;DHT22;59686;51.716;7.016;2022-11-20T11:07:46;6.90;64.70
71837;DHT22;59686;51.716;7.016;2022-11-20T11:12:47;6.90;64.80
71837;DHT22;59686;51.716;7.016;2022-11-20T11:15:26;6.90;64.70
71837;DHT22;59686;51.716;7.016;2022-11-20T11:17:52;6.90;65.60
71837;DHT22;59686;51.716;7.016;2022-11-20T11:20:20;6.90;64.90
71837;DHT22;59686;51.716;7.016;2022-11-20T11:22:49;6.90;65.00
71837;DHT22;59686;51.716;7.016;2022-11-20T11:25:29;7.00;65.10
71837;DHT22;59686;51.716;7.016;2022-11-20T11:27:58;6.90;65.20
71837;DHT22;59686;51.716;7.016;2022-11-20T11:30:26;6.90;65.20
71837;DHT22;59686;51.716;7.016;2022-11-20T11:33:08;6.90;65.20
71837;DHT22;59686;51.716;7.016;2022-11-20T11:35:43;6.90;65.20
71837;DHT22;59686;51.716;7.016;2022-11-20T11:38:16;6.90;65.30
71837;DHT22;59686;51.716;7.016;2022-11-20T11:40:45;6.90;65.30
71837;DHT22;59686;51.716;7.016;2022-11-20T11:43:19;6.90;65.40
71837;DHT22;59686;51.716;7.016;2022-11-20T11:49:09;6.90;65.50
71837;DHT22;59686;51.716;7.016;2022-11-20T11:52:07;6.90;65.50
71837;DHT22;59686;51.716;7.016;2022-11-20T12:00:03;6.90;65.70
71837;DHT22;59686;51.716;7.016;2022-11-20T12:05:22;7.00;65.60
71837;DHT22;59686;51.716;7.016;2022-11-20T12:13:54;7.00;65.60
71837;DHT22;59686;51.716;7.016;2022-11-20T12:16:21;7.00;65.80
71837;DHT22;59686;51.716;7.016;2022-11-20T12:18:52;7.00;65.80
71837;DHT22;59686;51.716;7.016;2022-11-20T12:21:34;7.00;65.90
71837;DHT22;59686;51.716;7.016;2022-11-20T12:39:42;7.00;66.20
71837;DHT22;59686;51.716;7.016;2022-11-20T12:45:10;7.00;66.30
71837;DHT22;59686;51.716;7.016;2022-11-20T12:53:50;6.90;66.60
71837;DHT22;59686;51.716;7.016;2022-11-20T12:56:43;6.90;66.60
71837;DHT22;59686;51.716;7.016;2022-11-20T12:59:38;6.90;66.70
71837;DHT22;59686;51.716;7.016;2022-11-20T13:02:37;6.90;66.80
71837;DHT22;59686;51.716;7.016;2022-11-20T13:07:41;6.90;66.80
71837;DHT22;59686;51.716;7.016;2022-11-20T13:11:04;6.90;66.90
71837;DHT22;59686;51.716;7.016;2022-11-20T13:19:03;6.90;67.00
71837;DHT22;59686;51.716;7.016;2022-11-20T13:21:44;6.90;67.10
71837;DHT22;59686;51.716;7.016;2022-11-20T13:24:23;6.90;67.10
71837;DHT22;59686;51.716;7.016;2022-11-20T13:27:04;6.90;68.00
71837;DHT22;59686;51.716;7.016;2022-11-20T13:29:31;6.90;67.20
71837;DHT22;59686;51.716;7.016;2022-11-20T13:32:18;6.90;67.20
71837;DHT22;59686;51.716;7.016;2022-11-20T13:35:11;6.90;67.20
71837;DHT22;59686;51.716;7.016;2022-11-20T13:37:38;6.90;67.30
71837;DHT22;59686;51.716;7.016;2022-11-20T13:45:59;7.00;67.50
71837;DHT22;59686;51.716;7.016;2022-11-20T13:48:30;6.90;67.50
71837;DHT22;59686;51.716;7.016;2022-11-20T13:56:48;6.90;67.60
71837;DHT22;59686;51.716;7.016;2022-11-20T14:02:22;6.90;67.80
71837;DHT22;59686;51.716;7.016;2022-11-20T14:04:52;6.90;67.80
71837;DHT22;59686;51.716;7.016;2022-11-20T14:07:20;6.90;67.80
71837;DHT22;59686;51.716;7.016;2022-11-20T14:09:57;6.90;68.30
71837;DHT22;59686;51.716;7.016;2022-11-20T14:12:29;7.00;68.00
71837;DHT22;59686;51.716;7.016;2022-11-20T14:14:55;6.90;67.90
71837;DHT22;59686;51.716;7.016;2022-11-20T14:17:33;6.90;68.10
71837;DHT22;59686;51.716;7.016;2022-11-20T14:20:05;6.90;68.10
71837;DHT22;59686;51.716;7.016;2022-11-20T14:22:31;7.00;68.20
71837;DHT22;59686;51.716;7.016;2022-11-20T14:27:27;6.90;68.40
71837;DHT22;59686;51.716;7.016;2022-11-20T14:29:53;7.00;68.50
71837;DHT22;59686;51.716;7.016;2022-11-20T14:32:21;7.10;69.40
71837;DHT22;59686;51.716;7.016;2022-11-20T14:34:50;7.00;68.60
71837;DHT22;59686;51.716;7.016;2022-11-20T14:37:24;7.00;68.60
71837;DHT22;59686;51.716;7.016;2022-11-20T14:39:55;7.00;68.60
71837;DHT22;59686;51.716;7.016;2022-11-20T14:42:24;7.00;68.60
71837;DHT22;59686;51.716;7.016;2022-11-20T14:44:51;7.00;68.60
71837;DHT22;59686;51.716;7.016;2022-11-20T14:47:29;7.10;68.80
71837;DHT22;59686;51.716;7.016;2022-11-20T14:49:56;7.00;68.70
71837;DHT22;59686;51.716;7.016;2022-11-20T14:52:24;7.00;68.70
71837;DHT22;59686;51.716;7.016;2022-11-20T14:58:01;7.00;68.90
71837;DHT22;59686;51.716;7.016;2022-11-20T15:00:29;7.00;68.90
71837;DHT22;59686;51.716;7.016;2022-11-20T15:02:55;7.00;69.00
71837;DHT22;59686;51.716;7.016;2022-11-20T15:05:26;6.90;69.10
71837;DHT22;59686;51.716;7.016;2022-11-20T15:08:09;7.00;69.20
71837;DHT22;59686;51.716;7.016;2022-11-20T15:10:38;7.00;69.30
71837;DHT22;59686;51.716;7.016;2022-11-20T15:13:16;7.00;69.40
71837;DHT22;59686;51.716;7.016;2022-11-20T15:15:46;6.90;69.50
71837;DHT22;59686;51.716;7.016;2022-11-20T15:18:18;7.00;69.40
71837;DHT22;59686;51.716;7.016;2022-11-20T15:20:44;7.00;69.50
71837;DHT22;59686;51.716;7.016;2022-11-20T15:23:12;7.00;69.50
71837;DHT22;59686;51.716;7.016;2022-11-20T15:25:39;7.00;69.50
71837;DHT22;59686;51.716;7.016;2022-11-20T15:28:16;7.00;69.60
71837;DHT22;59686;51.716;7.016;2022-11-20T15:30:43;7.00;69.60
71837;DHT22;59686;51.716;7.016;2022-11-20T15:33:10;7.00;69.70
71837;DHT22;59686;51.716;7.016;2022-11-20T15:35:36;7.00;69.70
71837;DHT22;59686;51.716;7.016;2022-11-20T15:38:02;7.00;69.80
71837;DHT22;59686;51.716;7.016;2022-11-20T15:40:28;7.00;69.90
71837;DHT22;59686;51.716;7.016;2022-11-20T15:42:53;7.00;69.80
71837;DHT22;59686;51.716;7.016;2022-11-20T15:45:31;7.00;69.90
71837;DHT22;59686;51.716;7.016;2022-11-20T15:48:01;7.00;70.00
71837;DHT22;59686;51.716;7.016;2022-11-20T15:50:33;7.00;70.10
71837;DHT22;59686;51.716;7.016;2022-11-20T15:53:01;7.00;70.10
71837;DHT22;59686;51.716;7.016;2022-11-20T15:55:27;7.00;70.20
71837;DHT22;59686;51.716;7.016;2022-11-20T15:57:52;7.00;70.30
71837;DHT22;59686;51.716;7.016;2022-11-20T16:00:18;7.00;70.30
71837;DHT22;59686;51.716;7.016;2022-11-20T16:02:44;7.00;70.40
71837;DHT22;59686;51.716;7.016;2022-11-20T16:05:11;7.00;70.40
71837;DHT22;59686;51.716;7.016;2022-11-20T16:07:37;7.00;70.60
71837;DHT22;59686;51.716;7.016;2022-11-20T16:10:04;7.00;70.60
71837;DHT22;59686;51.716;7.016;2022-11-20T16:12:30;7.00;70.70
71837;DHT22;59686;51.716;7.016;2022-11-20T16:15:14;7.00;70.80
71837;DHT22;59686;51.716;7.016;2022-11-20T16:17:58;7.00;70.70
71837;DHT22;59686;51.716;7.016;2022-11-20T16:20:24;7.00;70.70
71837;DHT22;59686;51.716;7.016;2022-11-20T16:22:49;7.00;70.80
71837;DHT22;59686;51.716;7.016;2022-11-20T16:25:15;7.00;70.80
71837;DHT22;59686;51.716;7.016;2022-11-20T16:27:41;7.00;70.80
71837;DHT22;59686;51.716;7.016;2022-11-20T16:30:07;7.00;70.80
71837;DHT22;59686;51.716;7.016;2022-11-20T16:32:33;7.00;70.80
71837;DHT22;59686;51.716;7.016;2022-11-20T16:34:58;7.00;70.80
71837;DHT22;59686;51.716;7.016;2022-11-20T16:37:24;7.00;71.00
71837;DHT22;59686;51.716;7.016;2022-11-20T16:39:50;7.00;71.20
71837;DHT22;59686;51.716;7.016;2022-11-20T16:42:15;7.00;71.10
71837;DHT22;59686;51.716;7.016;2022-11-20T16:44:41;7.10;71.20
71837;DHT22;59686;51.716;7.016;2022-11-20T16:47:10;7.00;71.20
71837;DHT22;59686;51.716;7.016;2022-11-20T16:49:36;7.00;71.30
71837;DHT22;59686;51.716;7.016;2022-11-20T16:52:01;7.00;71.30
71837;DHT22;59686;51.716;7.016;2022-11-20T16:54:27;7.00;71.30
71837;DHT22;59686;51.716;7.016;2022-11-20T16:56:52;7.00;71.40
71837;DHT22;59686;51.716;7.016;2022-11-20T16:59:18;7.00;71.30
71837;DHT22;59686;51.716;7.016;2022-11-20T17:01:44;7.00;71.40
71837;DHT22;59686;51.716;7.016;2022-11-20T17:04:10;6.90;71.50
71837;DHT22;59686;51.716;7.016;2022-11-20T17:06:37;7.00;71.50
71837;DHT22;59686;51.716;7.016;2022-11-20T17:09:05;7.00;71.40
71837;DHT22;59686;51.716;7.016;2022-11-20T17:11:34;7.00;71.50
71837;DHT22;59686;51.716;7.016;2022-11-20T17:14:00;7.00;71.50
71837;DHT22;59686;51.716;7.016;2022-11-20T17:16:27;7.00;71.40
71837;DHT22;59686;51.716;7.016;2022-11-20T17:18:57;7.00;71.50
71837;DHT22;59686;51.716;7.016;2022-11-20T17:21:23;7.00;71.60
71837;DHT22;59686;51.716;7.016;2022-11-20T17:23:49;7.00;71.70
71837;DHT22;59686;51.716;7.016;2022-11-20T17:26:19;7.00;71.80
71837;DHT22;59686;51.716;7.016;2022-11-20T17:28:56;7.00;71.90
71837;DHT22;59686;51.716;7.016;2022-11-20T17:31:26;7.00;72.00
71837;DHT22;59686;51.716;7.016;2022-11-20T17:33:51;7.00;71.90
71837;DHT22;59686;51.716;7.016;2022-11-20T17:36:18;7.00;72.00
71837;DHT22;59686;51.716;7.016;2022-11-20T17:38:44;6.90;72.00
71837;DHT22;59686;51.716;7.016;2022-11-20T17:41:13;7.00;72.00
71837;DHT22;59686;51.716;7.016;2022-11-20T17:43:39;7.00;72.20
71837;DHT22;59686;51.716;7.016;2022-11-20T17:46:09;7.00;72.10
71837;DHT22;59686;51.716;7.016;2022-11-20T17:48:36;6.90;72.20